sensor_id;sensor_type;location;lat;lon;timestamp;temperature;humidity
76291;DHT22;65100;46.884;17.410;2024-01-11T00:01:15;-6.73;77.94
76291;DHT22;65100;46.884;17.410;2024-01-11T00:03:40;-6.46;76.68
76291;DHT22;65100;46.884;17.410;2024-01-11T00:06:06;-6.41;76.04
76291;DHT22;65100;46.884;17.410;2024-01-11T00:08:31;-6.42;76.24
76291;DHT22;65100;46.884;17.410;2024-01-11T00:10:57;-6.49;75.95
76291;DHT22;65100;46.884;17.410;2024-01-11T00:13:22;-6.31;75.50
76291;DHT22;65100;46.884;17.410;2024-01-11T00:15:48;-6.35;75.43
76291;DHT22;65100;46.884;17.410;2024-01-11T00:18:13;-6.56;75.84
76291;DHT22;65100;46.884;17.410;2024-01-11T00:20:39;-6.66;76.80
76291;DHT22;65100;46.884;17.410;2024-01-11T00:23:04;-7.07;77.99
76291;DHT22;65100;46.884;17.410;2024-01-11T00:25:29;-7.43;79.40
76291;DHT22;65100;46.884;17.410;2024-01-11T00:27:55;-7.31;79.58
76291;DHT22;65100;46.884;17.410;2024-01-11T00:30:20;-6.95;78.34
76291;DHT22;65100;46.884;17.410;2024-01-11T00:32:46;-6.68;76.89
76291;DHT22;65100;46.884;17.410;2024-01-11T00:35:11;-6.55;75.94
76291;DHT22;65100;46.884;17.410;2024-01-11T00:37:36;-6.87;75.56
76291;DHT22;65100;46.884;17.410;2024-01-11T00:40:02;-7.16;76.57
76291;DHT22;65100;46.884;17.410;2024-01-11T00:42:27;-7.06;77.08
76291;DHT22;65100;46.884;17.410;2024-01-11T00:44:53;-6.96;77.21
76291;DHT22;65100;46.884;17.410;2024-01-11T00:47:18;-6.80;77.59
76291;DHT22;65100;46.884;17.410;2024-01-11T00:49:44;-6.86;77.30
76291;DHT22;65100;46.884;17.410;2024-01-11T00:52:09;-6.62;77.19
76291;DHT22;65100;46.884;17.410;2024-01-11T00:54:35;-6.41;75.70
76291;DHT22;65100;46.884;17.410;2024-01-11T00:57:01;-6.35;75.03
76291;DHT22;65100;46.884;17.410;2024-01-11T00:59:26;-6.41;75.48
76291;DHT22;65100;46.884;17.410;2024-01-11T01:01:52;-6.32;76.24
76291;DHT22;65100;46.884;17.410;2024-01-11T01:04:17;-6.42;76.19
76291;DHT22;65100;46.884;17.410;2024-01-11T01:06:43;-6.45;76.67
76291;DHT22;65100;46.884;17.410;2024-01-11T01:09:08;-6.35;76.17
76291;DHT22;65100;46.884;17.410;2024-01-11T01:11:34;-6.53;76.31
76291;DHT22;65100;46.884;17.410;2024-01-11T01:13:59;-6.59;76.77
76291;DHT22;65100;46.884;17.410;2024-01-11T01:16:25;-6.53;76.06
76291;DHT22;65100;46.884;17.410;2024-01-11T01:18:50;-6.53;76.87
76291;DHT22;65100;46.884;17.410;2024-01-11T01:21:16;-6.75;77.37
76291;DHT22;65100;46.884;17.410;2024-01-11T01:23:41;-6.58;77.20
76291;DHT22;65100;46.884;17.410;2024-01-11T01:26:07;-6.55;77.95
76291;DHT22;65100;46.884;17.410;2024-01-11T01:28:32;-6.31;76.11
76291;DHT22;65100;46.884;17.410;2024-01-11T01:30:58;-6.53;75.75
76291;DHT22;65100;46.884;17.410;2024-01-11T01:33:23;-7.11;76.98
76291;DHT22;65100;46.884;17.410;2024-01-11T01:35:49;-7.31;79.55
76291;DHT22;65100;46.884;17.410;2024-01-11T01:38:14;-7.23;80.52
76291;DHT22;65100;46.884;17.410;2024-01-11T01:40:40;-6.97;79.36
76291;DHT22;65100;46.884;17.410;2024-01-11T01:43:08;-6.73;77.79
76291;DHT22;65100;46.884;17.410;2024-01-11T01:45:38;-6.58;75.67
76291;DHT22;65100;46.884;17.410;2024-01-11T01:48:03;-6.73;75.30
76291;DHT22;65100;46.884;17.410;2024-01-11T01:50:29;-6.96;76.09
76291;DHT22;65100;46.884;17.410;2024-01-11T01:52:56;-6.89;76.60
76291;DHT22;65100;46.884;17.410;2024-01-11T01:55:22;-6.85;76.19
76291;DHT22;65100;46.884;17.410;2024-01-11T01:57:48;-7.03;77.00
76291;DHT22;65100;46.884;17.410;2024-01-11T02:00:15;-7.07;77.75
76291;DHT22;65100;46.884;17.410;2024-01-11T02:02:43;-6.79;76.53
76291;DHT22;65100;46.884;17.410;2024-01-11T02:05:11;-6.71;75.82
76291;DHT22;65100;46.884;17.410;2024-01-11T02:07:38;-6.69;75.43
76291;DHT22;65100;46.884;17.410;2024-01-11T02:10:05;-6.71;75.06
76291;DHT22;65100;46.884;17.410;2024-01-11T02:12:30;-6.69;74.72
76291;DHT22;65100;46.884;17.410;2024-01-11T02:14:56;-6.75;74.46
76291;DHT22;65100;46.884;17.410;2024-01-11T02:17:22;-6.73;75.12
76291;DHT22;65100;46.884;17.410;2024-01-11T02:19:47;-6.76;74.99
76291;DHT22;65100;46.884;17.410;2024-01-11T02:22:18;-6.73;75.16
76291;DHT22;65100;46.884;17.410;2024-01-11T02:24:46;-6.80;75.60
76291;DHT22;65100;46.884;17.410;2024-01-11T02:27:11;-6.87;75.93
76291;DHT22;65100;46.884;17.410;2024-01-11T02:29:36;-7.00;75.78
76291;DHT22;65100;46.884;17.410;2024-01-11T02:32:02;-7.20;75.84
76291;DHT22;65100;46.884;17.410;2024-01-11T02:34:28;-7.23;76.44
76291;DHT22;65100;46.884;17.410;2024-01-11T02:36:54;-7.64;77.62
76291;DHT22;65100;46.884;17.410;2024-01-11T02:39:22;-7.50;77.70
76291;DHT22;65100;46.884;17.410;2024-01-11T02:41:49;-7.47;78.28
76291;DHT22;65100;46.884;17.410;2024-01-11T02:44:15;-7.17;77.08
76291;DHT22;65100;46.884;17.410;2024-01-11T02:46:40;-7.20;76.77
76291;DHT22;65100;46.884;17.410;2024-01-11T02:49:06;-7.17;76.95
76291;DHT22;65100;46.884;17.410;2024-01-11T02:51:31;-7.13;76.65
76291;DHT22;65100;46.884;17.410;2024-01-11T02:53:57;-7.04;75.75
76291;DHT22;65100;46.884;17.410;2024-01-11T02:56:23;-7.06;75.52
76291;DHT22;65100;46.884;17.410;2024-01-11T02:58:48;-7.17;75.82
76291;DHT22;65100;46.884;17.410;2024-01-11T03:01:14;-7.10;75.86
76291;DHT22;65100;46.884;17.410;2024-01-11T03:03:39;-7.23;76.84
76291;DHT22;65100;46.884;17.410;2024-01-11T03:06:05;-6.97;75.67
76291;DHT22;65100;46.884;17.410;2024-01-11T03:08:31;-6.95;74.28
76291;DHT22;65100;46.884;17.410;2024-01-11T03:10:56;-6.93;72.90
76291;DHT22;65100;46.884;17.410;2024-01-11T03:13:23;-7.17;73.58
76291;DHT22;65100;46.884;17.410;2024-01-11T03:15:48;-7.33;75.11
76291;DHT22;65100;46.884;17.410;2024-01-11T03:18:14;-7.47;76.54
76291;DHT22;65100;46.884;17.410;2024-01-11T03:20:39;-7.47;77.03
76291;DHT22;65100;46.884;17.410;2024-01-11T03:23:05;-7.28;77.12
76291;DHT22;65100;46.884;17.410;2024-01-11T03:25:31;-7.23;76.30
76291;DHT22;65100;46.884;17.410;2024-01-11T03:27:58;-7.33;76.49
76291;DHT22;65100;46.884;17.410;2024-01-11T03:30:24;-7.27;75.61
76291;DHT22;65100;46.884;17.410;2024-01-11T03:32:49;-7.26;75.53
76291;DHT22;65100;46.884;17.410;2024-01-11T03:35:15;-7.14;74.76
76291;DHT22;65100;46.884;17.410;2024-01-11T03:37:40;-7.16;73.66
76291;DHT22;65100;46.884;17.410;2024-01-11T03:40:06;-7.24;73.62
76291;DHT22;65100;46.884;17.410;2024-01-11T03:42:31;-7.47;74.84
76291;DHT22;65100;46.884;17.410;2024-01-11T03:44:57;-7.81;76.37
76291;DHT22;65100;46.884;17.410;2024-01-11T03:47:22;-7.67;77.41
76291;DHT22;65100;46.884;17.410;2024-01-11T03:49:48;-7.57;76.57
76291;DHT22;65100;46.884;17.410;2024-01-11T03:52:13;-7.52;75.62
76291;DHT22;65100;46.884;17.410;2024-01-11T03:54:39;-7.75;77.05
76291;DHT22;65100;46.884;17.410;2024-01-11T03:57:04;-7.70;78.07
76291;DHT22;65100;46.884;17.410;2024-01-11T03:59:30;-7.48;76.09
76291;DHT22;65100;46.884;17.410;2024-01-11T04:01:56;-7.27;74.84
76291;DHT22;65100;46.884;17.410;2024-01-11T04:04:22;-7.10;73.95
76291;DHT22;65100;46.884;17.410;2024-01-11T04:06:48;-7.13;74.03
76291;DHT22;65100;46.884;17.410;2024-01-11T04:09:13;-7.07;74.10
76291;DHT22;65100;46.884;17.410;2024-01-11T04:11:39;-7.14;74.76
76291;DHT22;65100;46.884;17.410;2024-01-11T04:14:04;-7.33;75.43
76291;DHT22;65100;46.884;17.410;2024-01-11T04:16:30;-7.26;75.61
76291;DHT22;65100;46.884;17.410;2024-01-11T04:18:55;-7.13;75.53
76291;DHT22;65100;46.884;17.410;2024-01-11T04:21:24;-7.10;75.00
76291;DHT22;65100;46.884;17.410;2024-01-11T04:23:53;-7.19;73.48
76291;DHT22;65100;46.884;17.410;2024-01-11T04:26:19;-7.45;73.29
76291;DHT22;65100;46.884;17.410;2024-01-11T04:28:48;-7.48;73.93
76291;DHT22;65100;46.884;17.410;2024-01-11T04:31:14;-8.06;75.64
76291;DHT22;65100;46.884;17.410;2024-01-11T04:33:41;-8.03;77.11
76291;DHT22;65100;46.884;17.410;2024-01-11T04:36:08;-7.78;76.37
76291;DHT22;65100;46.884;17.410;2024-01-11T04:38:33;-7.88;75.71
76291;DHT22;65100;46.884;17.410;2024-01-11T04:40:59;-7.79;75.36
76291;DHT22;65100;46.884;17.410;2024-01-11T04:43:24;-7.87;75.30
76291;DHT22;65100;46.884;17.410;2024-01-11T04:45:50;-7.77;75.13
76291;DHT22;65100;46.884;17.410;2024-01-11T04:48:15;-7.82;75.29
76291;DHT22;65100;46.884;17.410;2024-01-11T04:50:40;-7.65;74.97
76291;DHT22;65100;46.884;17.410;2024-01-11T04:53:06;-7.68;74.52
76291;DHT22;65100;46.884;17.410;2024-01-11T04:55:32;-7.78;73.64
76291;DHT22;65100;46.884;17.410;2024-01-11T04:57:57;-7.79;74.42
76291;DHT22;65100;46.884;17.410;2024-01-11T05:00:23;-7.78;74.73
76291;DHT22;65100;46.884;17.410;2024-01-11T05:02:48;-8.11;75.79
76291;DHT22;65100;46.884;17.410;2024-01-11T05:05:14;-7.85;76.11
76291;DHT22;65100;46.884;17.410;2024-01-11T05:07:39;-7.71;74.37
76291;DHT22;65100;46.884;17.410;2024-01-11T05:10:05;-7.84;74.58
76291;DHT22;65100;46.884;17.410;2024-01-11T05:12:31;-8.08;76.21
76291;DHT22;65100;46.884;17.410;2024-01-11T05:14:56;-7.79;76.23
76291;DHT22;65100;46.884;17.410;2024-01-11T05:17:21;-7.87;75.66
76291;DHT22;65100;46.884;17.410;2024-01-11T05:19:47;-8.18;76.89
76291;DHT22;65100;46.884;17.410;2024-01-11T05:22:13;-7.82;76.42
76291;DHT22;65100;46.884;17.410;2024-01-11T05:24:38;-7.91;75.97
76291;DHT22;65100;46.884;17.410;2024-01-11T05:27:04;-7.82;76.35
76291;DHT22;65100;46.884;17.410;2024-01-11T05:29:29;-7.82;76.12
76291;DHT22;65100;46.884;17.410;2024-01-11T05:31:55;-7.98;77.35
76291;DHT22;65100;46.884;17.410;2024-01-11T05:34:20;-8.03;77.68
76291;DHT22;65100;46.884;17.410;2024-01-11T05:36:46;-7.98;77.24
76291;DHT22;65100;46.884;17.410;2024-01-11T05:39:11;-7.85;77.21
76291;DHT22;65100;46.884;17.410;2024-01-11T05:41:37;-7.70;77.87
76291;DHT22;65100;46.884;17.410;2024-01-11T05:44:02;-7.52;77.26
76291;DHT22;65100;46.884;17.410;2024-01-11T05:46:28;-7.13;76.16
76291;DHT22;65100;46.884;17.410;2024-01-11T05:48:53;-7.06;74.44
76291;DHT22;65100;46.884;17.410;2024-01-11T05:51:19;-7.04;74.78
76291;DHT22;65100;46.884;17.410;2024-01-11T05:53:44;-7.07;74.27
76291;DHT22;65100;46.884;17.410;2024-01-11T05:56:10;-7.09;74.91
76291;DHT22;65100;46.884;17.410;2024-01-11T05:58:36;-7.04;74.69
76291;DHT22;65100;46.884;17.410;2024-01-11T06:01:04;-7.40;73.57
76291;DHT22;65100;46.884;17.410;2024-01-11T06:03:30;-7.91;75.20
76291;DHT22;65100;46.884;17.410;2024-01-11T06:05:59;-7.94;76.44
76291;DHT22;65100;46.884;17.410;2024-01-11T06:08:25;-7.79;76.29
76291;DHT22;65100;46.884;17.410;2024-01-11T06:10:50;-7.71;75.34
76291;DHT22;65100;46.884;17.410;2024-01-11T06:13:16;-7.82;76.41
76291;DHT22;65100;46.884;17.410;2024-01-11T06:15:41;-7.71;76.23
76291;DHT22;65100;46.884;17.410;2024-01-11T06:18:07;-7.50;75.58
76291;DHT22;65100;46.884;17.410;2024-01-11T06:20:33;-7.82;78.33
76291;DHT22;65100;46.884;17.410;2024-01-11T06:22:58;-7.98;79.32
76291;DHT22;65100;46.884;17.410;2024-01-11T06:25:23;-7.81;81.37
76291;DHT22;65100;46.884;17.410;2024-01-11T06:27:49;-7.84;80.31
76291;DHT22;65100;46.884;17.410;2024-01-11T06:30:14;-8.03;78.51
76291;DHT22;65100;46.884;17.410;2024-01-11T06:32:40;-7.70;76.18
76291;DHT22;65100;46.884;17.410;2024-01-11T06:35:47;-7.54;74.75
76291;DHT22;65100;46.884;17.410;2024-01-11T06:38:12;-7.58;76.14
76291;DHT22;65100;46.884;17.410;2024-01-11T06:40:38;-8.09;77.10
76291;DHT22;65100;46.884;17.410;2024-01-11T06:43:04;-7.82;76.47
76291;DHT22;65100;46.884;17.410;2024-01-11T06:45:30;-7.41;76.42
76291;DHT22;65100;46.884;17.410;2024-01-11T06:47:55;-7.31;74.60
76291;DHT22;65100;46.884;17.410;2024-01-11T06:50:22;-7.31;76.31
76291;DHT22;65100;46.884;17.410;2024-01-11T06:52:47;-7.27;73.81
76291;DHT22;65100;46.884;17.410;2024-01-11T06:55:13;-6.95;72.89
76291;DHT22;65100;46.884;17.410;2024-01-11T06:57:38;-7.01;73.67
76291;DHT22;65100;46.884;17.410;2024-01-11T07:00:04;-7.01;73.60
76291;DHT22;65100;46.884;17.410;2024-01-11T07:02:30;-7.01;74.05
76291;DHT22;65100;46.884;17.410;2024-01-11T07:04:56;-6.93;73.71
76291;DHT22;65100;46.884;17.410;2024-01-11T07:07:22;-6.56;73.00
76291;DHT22;65100;46.884;17.410;2024-01-11T07:09:47;-6.49;73.06
76291;DHT22;65100;46.884;17.410;2024-01-11T07:12:13;-6.25;73.07
76291;DHT22;65100;46.884;17.410;2024-01-11T07:14:38;-6.00;73.50
76291;DHT22;65100;46.884;17.410;2024-01-11T07:17:03;-6.18;74.35
76291;DHT22;65100;46.884;17.410;2024-01-11T07:19:29;-5.64;73.52
76291;DHT22;65100;46.884;17.410;2024-01-11T07:21:54;-5.16;72.27
76291;DHT22;65100;46.884;17.410;2024-01-11T07:24:20;-5.29;71.83
76291;DHT22;65100;46.884;17.410;2024-01-11T07:26:45;-4.98;72.31
76291;DHT22;65100;46.884;17.410;2024-01-11T07:29:11;-4.21;71.10
76291;DHT22;65100;46.884;17.410;2024-01-11T07:31:36;-3.59;68.94
76291;DHT22;65100;46.884;17.410;2024-01-11T07:34:01;-4.34;70.77
76291;DHT22;65100;46.884;17.410;2024-01-11T07:36:27;-4.55;72.33
76291;DHT22;65100;46.884;17.410;2024-01-11T07:38:53;-4.34;72.56
76291;DHT22;65100;46.884;17.410;2024-01-11T07:41:18;-4.40;73.41
76291;DHT22;65100;46.884;17.410;2024-01-11T07:43:44;-3.76;71.19
76291;DHT22;65100;46.884;17.410;2024-01-11T07:46:09;-3.67;70.90
76291;DHT22;65100;46.884;17.410;2024-01-11T07:48:41;-3.38;79.79
76291;DHT22;65100;46.884;17.410;2024-01-11T07:51:07;-2.84;79.69
76291;DHT22;65100;46.884;17.410;2024-01-11T07:53:32;-2.85;76.66
76291;DHT22;65100;46.884;17.410;2024-01-11T07:55:58;-2.29;70.76
76291;DHT22;65100;46.884;17.410;2024-01-11T07:58:23;-2.17;69.02
76291;DHT22;65100;46.884;17.410;2024-01-11T08:00:49;-2.10;70.84
76291;DHT22;65100;46.884;17.410;2024-01-11T08:03:15;-2.67;70.68
76291;DHT22;65100;46.884;17.410;2024-01-11T08:05:40;-2.51;71.56
76291;DHT22;65100;46.884;17.410;2024-01-11T08:08:06;-2.95;72.36
76291;DHT22;65100;46.884;17.410;2024-01-11T08:10:32;-2.92;73.37
76291;DHT22;65100;46.884;17.410;2024-01-11T08:12:57;-2.77;73.65
76291;DHT22;65100;46.884;17.410;2024-01-11T08:15:24;-2.88;74.47
76291;DHT22;65100;46.884;17.410;2024-01-11T08:17:50;-2.89;74.75
76291;DHT22;65100;46.884;17.410;2024-01-11T08:20:15;-2.63;74.52
76291;DHT22;65100;46.884;17.410;2024-01-11T08:22:44;-2.78;74.54
76291;DHT22;65100;46.884;17.410;2024-01-11T08:25:11;-2.50;75.01
76291;DHT22;65100;46.884;17.410;2024-01-11T08:27:36;-2.43;74.38
76291;DHT22;65100;46.884;17.410;2024-01-11T08:30:02;-2.37;74.78
76291;DHT22;65100;46.884;17.410;2024-01-11T08:32:30;-2.26;73.93
76291;DHT22;65100;46.884;17.410;2024-01-11T08:34:56;-2.37;74.56
76291;DHT22;65100;46.884;17.410;2024-01-11T08:37:22;-2.44;75.37
76291;DHT22;65100;46.884;17.410;2024-01-11T08:39:48;-2.34;75.94
76291;DHT22;65100;46.884;17.410;2024-01-11T08:42:14;-2.39;75.91
76291;DHT22;65100;46.884;17.410;2024-01-11T08:44:43;-2.29;76.07
76291;DHT22;65100;46.884;17.410;2024-01-11T08:47:09;-1.76;79.81
76291;DHT22;65100;46.884;17.410;2024-01-11T08:49:41;-2.13;75.58
76291;DHT22;65100;46.884;17.410;2024-01-11T08:52:07;-2.40;76.63
76291;DHT22;65100;46.884;17.410;2024-01-11T08:54:33;-2.22;76.85
76291;DHT22;65100;46.884;17.410;2024-01-11T08:56:59;-2.09;76.59
76291;DHT22;65100;46.884;17.410;2024-01-11T08:59:24;-1.73;75.65
76291;DHT22;65100;46.884;17.410;2024-01-11T09:01:54;-1.65;75.52
76291;DHT22;65100;46.884;17.410;2024-01-11T09:04:19;-1.39;74.75
76291;DHT22;65100;46.884;17.410;2024-01-11T09:06:45;-1.24;74.11
76291;DHT22;65100;46.884;17.410;2024-01-11T09:09:11;-1.22;73.89
76291;DHT22;65100;46.884;17.410;2024-01-11T09:11:39;-1.18;74.34
76291;DHT22;65100;46.884;17.410;2024-01-11T09:14:06;-1.24;75.27
76291;DHT22;65100;46.884;17.410;2024-01-11T09:16:32;-1.12;75.42
76291;DHT22;65100;46.884;17.410;2024-01-11T09:18:58;-0.85;75.41
76291;DHT22;65100;46.884;17.410;2024-01-11T09:21:26;-1.04;75.28
76291;DHT22;65100;46.884;17.410;2024-01-11T09:23:51;-1.04;76.70
76291;DHT22;65100;46.884;17.410;2024-01-11T09:26:17;-1.28;75.59
76291;DHT22;65100;46.884;17.410;2024-01-11T09:28:42;-1.00;76.04
76291;DHT22;65100;46.884;17.410;2024-01-11T09:31:08;-0.74;76.11
76291;DHT22;65100;46.884;17.410;2024-01-11T09:33:33;-0.81;75.28
76291;DHT22;65100;46.884;17.410;2024-01-11T09:35:59;-0.77;75.51
76291;DHT22;65100;46.884;17.410;2024-01-11T09:38:24;-0.56;74.91
76291;DHT22;65100;46.884;17.410;2024-01-11T09:41:07;-0.63;74.35
76291;DHT22;65100;46.884;17.410;2024-01-11T09:43:34;-0.76;74.63
76291;DHT22;65100;46.884;17.410;2024-01-11T09:46:03;-0.70;74.36
76291;DHT22;65100;46.884;17.410;2024-01-11T09:48:32;-0.59;77.14
76291;DHT22;65100;46.884;17.410;2024-01-11T09:50:59;-1.22;77.76
76291;DHT22;65100;46.884;17.410;2024-01-11T09:53:34;-1.09;78.15
76291;DHT22;65100;46.884;17.410;2024-01-11T09:56:02;-0.74;76.29
76291;DHT22;65100;46.884;17.410;2024-01-11T09:58:30;-0.98;77.48
76291;DHT22;65100;46.884;17.410;2024-01-11T10:00:56;-0.95;78.75
76291;DHT22;65100;46.884;17.410;2024-01-11T10:03:28;-0.61;77.43
76291;DHT22;65100;46.884;17.410;2024-01-11T10:05:58;-0.91;76.79
76291;DHT22;65100;46.884;17.410;2024-01-11T10:08:24;-1.08;77.66
76291;DHT22;65100;46.884;17.410;2024-01-11T10:10:58;-0.76;77.51
76291;DHT22;65100;46.884;17.410;2024-01-11T10:13:56;-0.39;76.16
76291;DHT22;65100;46.884;17.410;2024-01-11T10:16:27;-0.26;76.15
76291;DHT22;65100;46.884;17.410;2024-01-11T10:18:54;-0.30;75.66
76291;DHT22;65100;46.884;17.410;2024-01-11T10:21:20;-0.19;75.64
76291;DHT22;65100;46.884;17.410;2024-01-11T10:23:45;-0.39;75.88
76291;DHT22;65100;46.884;17.410;2024-01-11T10:26:11;0.01;75.06
76291;DHT22;65100;46.884;17.410;2024-01-11T10:28:36;0.09;75.32
76291;DHT22;65100;46.884;17.410;2024-01-11T10:31:03;0.39;77.67
76291;DHT22;65100;46.884;17.410;2024-01-11T10:33:33;0.65;74.34
76291;DHT22;65100;46.884;17.410;2024-01-11T10:35:59;0.66;72.64
76291;DHT22;65100;46.884;17.410;2024-01-11T10:38:26;0.79;80.50
76291;DHT22;65100;46.884;17.410;2024-01-11T10:40:56;1.01;79.90
76291;DHT22;65100;46.884;17.410;2024-01-11T10:43:26;0.90;76.22
76291;DHT22;65100;46.884;17.410;2024-01-11T10:45:52;0.93;77.87
76291;DHT22;65100;46.884;17.410;2024-01-11T10:48:24;0.80;77.68
76291;DHT22;65100;46.884;17.410;2024-01-11T10:50:54;0.63;75.44
76291;DHT22;65100;46.884;17.410;2024-01-11T10:56:01;1.62;76.82
76291;DHT22;65100;46.884;17.410;2024-01-11T10:58:26;1.62;75.00
76291;DHT22;65100;46.884;17.410;2024-01-11T11:00:53;1.92;74.20
76291;DHT22;65100;46.884;17.410;2024-01-11T11:03:25;1.61;74.69
76291;DHT22;65100;46.884;17.410;2024-01-11T11:05:53;1.82;76.44
76291;DHT22;65100;46.884;17.410;2024-01-11T11:08:19;1.81;77.39
76291;DHT22;65100;46.884;17.410;2024-01-11T11:10:45;2.18;77.06
76291;DHT22;65100;46.884;17.410;2024-01-11T11:13:14;2.48;79.11
76291;DHT22;65100;46.884;17.410;2024-01-11T11:15:45;2.14;71.02
76291;DHT22;65100;46.884;17.410;2024-01-11T11:18:13;2.53;77.97
76291;DHT22;65100;46.884;17.410;2024-01-11T11:20:39;2.29;70.55
76291;DHT22;65100;46.884;17.410;2024-01-11T11:23:08;1.81;74.26
76291;DHT22;65100;46.884;17.410;2024-01-11T11:25:35;1.68;70.62
76291;DHT22;65100;46.884;17.410;2024-01-11T11:28:00;2.08;70.06
76291;DHT22;65100;46.884;17.410;2024-01-11T11:30:29;2.14;69.32
76291;DHT22;65100;46.884;17.410;2024-01-11T11:32:55;2.08;67.97
76291;DHT22;65100;46.884;17.410;2024-01-11T11:35:23;2.25;67.39
76291;DHT22;65100;46.884;17.410;2024-01-11T11:37:54;2.64;67.40
76291;DHT22;65100;46.884;17.410;2024-01-11T11:40:20;2.62;69.78
76291;DHT22;65100;46.884;17.410;2024-01-11T11:42:47;2.50;68.83
76291;DHT22;65100;46.884;17.410;2024-01-11T11:45:24;2.62;65.59
76291;DHT22;65100;46.884;17.410;2024-01-11T11:47:50;2.52;62.73
76291;DHT22;65100;46.884;17.410;2024-01-11T11:50:16;2.62;62.76
76291;DHT22;65100;46.884;17.410;2024-01-11T11:52:44;2.93;62.80
76291;DHT22;65100;46.884;17.410;2024-01-11T11:55:11;3.03;60.71
76291;DHT22;65100;46.884;17.410;2024-01-11T11:57:37;3.06;61.21
76291;DHT22;65100;46.884;17.410;2024-01-11T12:00:03;3.11;60.78
76291;DHT22;65100;46.884;17.410;2024-01-11T12:02:32;3.24;61.17
76291;DHT22;65100;46.884;17.410;2024-01-11T12:04:58;3.21;60.58
76291;DHT22;65100;46.884;17.410;2024-01-11T12:07:24;2.99;60.28
76291;DHT22;65100;46.884;17.410;2024-01-11T12:09:50;3.04;59.41
76291;DHT22;65100;46.884;17.410;2024-01-11T12:12:16;3.30;58.75
76291;DHT22;65100;46.884;17.410;2024-01-11T12:14:47;3.44;57.72
76291;DHT22;65100;46.884;17.410;2024-01-11T12:17:13;3.41;58.04
76291;DHT22;65100;46.884;17.410;2024-01-11T12:19:38;3.52;65.23
76291;DHT22;65100;46.884;17.410;2024-01-11T12:22:04;3.48;64.57
76291;DHT22;65100;46.884;17.410;2024-01-11T12:24:29;2.77;58.44
76291;DHT22;65100;46.884;17.410;2024-01-11T12:26:56;3.00;58.92
76291;DHT22;65100;46.884;17.410;2024-01-11T12:29:23;3.18;57.88
76291;DHT22;65100;46.884;17.410;2024-01-11T12:31:50;3.42;62.90
76291;DHT22;65100;46.884;17.410;2024-01-11T12:34:15;3.64;68.73
76291;DHT22;65100;46.884;17.410;2024-01-11T12:36:41;3.55;63.97
76291;DHT22;65100;46.884;17.410;2024-01-11T12:39:08;3.44;65.09
76291;DHT22;65100;46.884;17.410;2024-01-11T12:41:35;3.68;64.27
76291;DHT22;65100;46.884;17.410;2024-01-11T12:44:05;3.55;61.77
76291;DHT22;65100;46.884;17.410;2024-01-11T12:46:30;3.64;63.89
76291;DHT22;65100;46.884;17.410;2024-01-11T12:48:56;3.54;61.22
76291;DHT22;65100;46.884;17.410;2024-01-11T12:51:21;3.41;61.49
76291;DHT22;65100;46.884;17.410;2024-01-11T12:53:53;3.39;60.75
76291;DHT22;65100;46.884;17.410;2024-01-11T12:56:19;3.39;59.70
76291;DHT22;65100;46.884;17.410;2024-01-11T12:58:47;3.31;55.77
76291;DHT22;65100;46.884;17.410;2024-01-11T13:01:13;3.18;53.91
76291;DHT22;65100;46.884;17.410;2024-01-11T13:03:43;3.07;52.99
76291;DHT22;65100;46.884;17.410;2024-01-11T13:06:09;2.92;53.26
76291;DHT22;65100;46.884;17.410;2024-01-11T13:08:37;3.17;54.36
76291;DHT22;65100;46.884;17.410;2024-01-11T13:11:05;3.10;50.52
76291;DHT22;65100;46.884;17.410;2024-01-11T13:13:35;3.13;52.12
76291;DHT22;65100;46.884;17.410;2024-01-11T13:16:01;3.07;50.37
76291;DHT22;65100;46.884;17.410;2024-01-11T13:18:31;3.04;50.66
76291;DHT22;65100;46.884;17.410;2024-01-11T13:20:57;3.00;50.18
76291;DHT22;65100;46.884;17.410;2024-01-11T13:23:22;3.07;52.86
76291;DHT22;65100;46.884;17.410;2024-01-11T13:25:49;2.93;52.38
76291;DHT22;65100;46.884;17.410;2024-01-11T13:28:16;2.89;54.85
76291;DHT22;65100;46.884;17.410;2024-01-11T13:30:42;3.16;53.52
76291;DHT22;65100;46.884;17.410;2024-01-11T13:33:09;3.17;52.80
76291;DHT22;65100;46.884;17.410;2024-01-11T13:35:36;3.21;52.27
76291;DHT22;65100;46.884;17.410;2024-01-11T13:38:02;3.17;53.28
76291;DHT22;65100;46.884;17.410;2024-01-11T13:40:31;3.17;53.01
76291;DHT22;65100;46.884;17.410;2024-01-11T13:42:57;3.11;54.13
76291;DHT22;65100;46.884;17.410;2024-01-11T13:45:23;3.10;55.29
76291;DHT22;65100;46.884;17.410;2024-01-11T13:47:50;2.90;53.45
76291;DHT22;65100;46.884;17.410;2024-01-11T13:50:15;2.84;54.20
76291;DHT22;65100;46.884;17.410;2024-01-11T13:52:43;2.90;54.66
76291;DHT22;65100;46.884;17.410;2024-01-11T13:55:09;2.86;55.11
76291;DHT22;65100;46.884;17.410;2024-01-11T13:57:36;2.93;54.83
76291;DHT22;65100;46.884;17.410;2024-01-11T14:00:03;3.10;54.37
76291;DHT22;65100;46.884;17.410;2024-01-11T14:02:29;3.13;56.13
76291;DHT22;65100;46.884;17.410;2024-01-11T14:04:54;3.10;61.31
76291;DHT22;65100;46.884;17.410;2024-01-11T14:07:19;3.10;63.04
76291;DHT22;65100;46.884;17.410;2024-01-11T14:09:45;3.10;65.79
76291;DHT22;65100;46.884;17.410;2024-01-11T14:12:11;3.00;65.88
76291;DHT22;65100;46.884;17.410;2024-01-11T14:14:36;2.93;66.85
76291;DHT22;65100;46.884;17.410;2024-01-11T14:17:02;3.04;72.68
76291;DHT22;65100;46.884;17.410;2024-01-11T14:19:27;3.30;73.18
76291;DHT22;65100;46.884;17.410;2024-01-11T14:21:53;3.27;66.96
76291;DHT22;65100;46.884;17.410;2024-01-11T14:24:21;2.92;63.31
76291;DHT22;65100;46.884;17.410;2024-01-11T14:26:47;2.62;62.83
76291;DHT22;65100;46.884;17.410;2024-01-11T14:29:12;2.35;63.43
76291;DHT22;65100;46.884;17.410;2024-01-11T14:31:38;2.56;62.33
76291;DHT22;65100;46.884;17.410;2024-01-11T14:34:04;2.42;62.04
76291;DHT22;65100;46.884;17.410;2024-01-11T14:36:30;2.32;63.49
76291;DHT22;65100;46.884;17.410;2024-01-11T14:38:55;2.32;63.79
76291;DHT22;65100;46.884;17.410;2024-01-11T14:41:20;2.69;62.22
76291;DHT22;65100;46.884;17.410;2024-01-11T14:43:46;2.59;62.66
76291;DHT22;65100;46.884;17.410;2024-01-11T14:46:12;2.63;62.39
76291;DHT22;65100;46.884;17.410;2024-01-11T14:48:37;2.59;62.06
76291;DHT22;65100;46.884;17.410;2024-01-11T14:51:03;2.59;62.10
76291;DHT22;65100;46.884;17.410;2024-01-11T14:53:29;2.43;62.40
76291;DHT22;65100;46.884;17.410;2024-01-11T14:55:55;2.25;63.41
76291;DHT22;65100;46.884;17.410;2024-01-11T14:58:20;2.04;63.13
76291;DHT22;65100;46.884;17.410;2024-01-11T15:00:46;2.35;70.30
76291;DHT22;65100;46.884;17.410;2024-01-11T15:03:12;2.22;63.04
76291;DHT22;65100;46.884;17.410;2024-01-11T15:05:38;2.32;61.74
76291;DHT22;65100;46.884;17.410;2024-01-11T15:08:03;2.15;61.84
76291;DHT22;65100;46.884;17.410;2024-01-11T15:10:29;2.16;62.10
76291;DHT22;65100;46.884;17.410;2024-01-11T15:12:55;1.91;62.86
76291;DHT22;65100;46.884;17.410;2024-01-11T15:15:22;1.81;63.58
76291;DHT22;65100;46.884;17.410;2024-01-11T15:17:47;1.79;63.59